createdAt,value
2023-02-01T00:03:52.849Z,10.45
2023-02-01T00:08:56.948Z,8.45
2023-02-01T00:14:00.031Z,10.57
2023-02-01T00:19:08.947Z,10.93
2023-02-01T00:24:12.905Z,12.25
2023-02-01T00:29:18.859Z,9.07
2023-02-01T00:34:22.025Z,9.98
2023-02-01T00:39:25.132Z,9.65
2023-02-01T00:44:28.469Z,9.35
2023-02-01T00:49:31.528Z,8.82
2023-02-01T00:54:35.194Z,9.48
2023-02-01T00:59:38.306Z,10.95
2023-02-01T01:04:42.244Z,9.70
2023-02-01T01:09:45.628Z,9.73
2023-02-01T01:14:48.809Z,9.50
2023-02-01T01:19:51.779Z,11.18
2023-02-01T01:24:54.795Z,9.25
2023-02-01T01:29:57.790Z,10.02
2023-02-01T01:35:00.870Z,9.27
2023-02-01T01:40:08.589Z,9.77
2023-02-01T01:45:28.730Z,9.63
2023-02-01T01:50:37.545Z,11.27
2023-02-01T01:55:44.876Z,10.50
2023-02-01T02:00:48.838Z,9.25
2023-02-01T02:05:53.765Z,9.05
2023-02-01T02:11:02.868Z,8.63
2023-02-01T02:16:43.600Z,9.82
2023-02-01T02:21:57.279Z,8.65
2023-02-01T02:27:40.239Z,9.35
2023-02-01T02:32:43.227Z,9.98
2023-02-01T02:38:27.295Z,10.20
2023-02-01T02:44:17.526Z,11.95
2023-02-01T02:49:27.164Z,11.80
2023-02-01T02:54:50.131Z,11.27
2023-02-01T03:00:17.450Z,11.35
2023-02-01T03:05:22.082Z,12.20
2023-02-01T03:10:45.076Z,11.48
2023-02-01T03:15:56.583Z,14.95
2023-02-01T03:21:04.837Z,17.73
2023-02-01T03:26:12.479Z,16.27
2023-02-01T03:31:15.975Z,16.88
2023-02-01T03:36:27.392Z,11.93
2023-02-01T03:41:52.747Z,14.93
2023-02-01T03:47:08.789Z,10.48
2023-02-01T03:52:19.556Z,9.15
2023-02-01T03:57:31.315Z,10.38
2023-02-01T04:02:35.127Z,8.88
2023-02-01T04:07:38.379Z,8.93
2023-02-01T04:12:41.953Z,8.38
2023-02-01T04:17:45.057Z,8.20
2023-02-01T04:22:48.145Z,10.05
2023-02-01T04:27:51.233Z,8.52
2023-02-01T04:32:54.321Z,9.68
2023-02-01T04:37:57.380Z,9.30
2023-02-01T04:43:02.823Z,9.45
2023-02-01T04:48:06.100Z,10.55
2023-02-01T04:53:09.128Z,10.73
2023-02-01T04:58:12.517Z,10.32
2023-02-01T05:03:15.571Z,10.80
2023-02-01T05:08:18.657Z,10.40
2023-02-01T05:13:40.159Z,11.15
2023-02-01T05:18:43.382Z,10.27
2023-02-01T05:24:05.030Z,8.05
2023-02-01T05:29:09.144Z,8.73
2023-02-01T05:34:12.652Z,9.63
2023-02-01T05:39:15.794Z,9.25
2023-02-01T05:44:18.806Z,10.35
2023-02-01T05:49:21.910Z,9.93
2023-02-01T05:54:25.091Z,9.70
2023-02-01T05:59:28.138Z,10.80
2023-02-01T06:04:31.261Z,9.98
2023-02-01T06:09:34.380Z,10.98
2023-02-01T06:14:38.404Z,11.07
2023-02-01T06:19:41.827Z,11.55
2023-02-01T06:24:45.055Z,10.50
2023-02-01T06:29:48.087Z,10.38
2023-02-01T06:34:51.446Z,11.45
2023-02-01T06:39:54.642Z,11.95
2023-02-01T06:44:57.641Z,10.77
2023-02-01T06:50:00.696Z,10.23
2023-02-01T06:55:06.996Z,11.88
2023-02-01T07:00:10.777Z,10.38
2023-02-01T07:05:14.000Z,10.52
2023-02-01T07:10:17.451Z,10.38
2023-02-01T07:15:20.523Z,10.20
2023-02-01T07:20:23.855Z,10.95
2023-02-01T07:25:27.057Z,10.20
2023-02-01T07:30:30.162Z,8.13
2023-02-01T07:35:33.169Z,10.52
2023-02-01T07:40:36.204Z,9.98
2023-02-01T07:45:39.445Z,10.93
2023-02-01T07:50:42.532Z,11.52
2023-02-01T07:55:45.896Z,10.90
2023-02-01T08:01:09.230Z,11.27
2023-02-01T08:06:12.338Z,10.50
2023-02-01T08:11:16.007Z,11.18
2023-02-01T08:16:21.109Z,11.93
2023-02-01T08:21:28.928Z,13.13
2023-02-01T08:26:32.304Z,12.30
2023-02-01T08:31:36.267Z,12.85
2023-02-01T08:36:39.605Z,12.52
2023-02-01T08:41:43.720Z,11.80
2023-02-01T08:46:46.709Z,13.68
2023-02-01T08:51:49.699Z,13.23
2023-02-01T08:56:52.774Z,13.23
2023-02-01T09:01:56.896Z,13.23
2023-02-01T09:06:59.976Z,15.13
2023-02-01T09:12:03.831Z,13.30
2023-02-01T09:17:07.165Z,11.45
2023-02-01T09:22:10.286Z,14.60
2023-02-01T09:27:13.493Z,13.05
2023-02-01T09:32:16.769Z,13.88
2023-02-01T09:37:20.863Z,12.98
2023-02-01T09:42:47.908Z,14.23
2023-02-01T09:47:56.891Z,14.43
2023-02-01T09:53:39.366Z,14.85
2023-02-01T09:59:23.940Z,14.63
2023-02-01T10:04:27.835Z,14.82
2023-02-01T10:09:52.281Z,12.82
2023-02-01T10:15:33.923Z,15.63
2023-02-01T10:20:53.982Z,14.63
2023-02-01T10:26:03.661Z,16.38
2023-02-01T10:31:10.527Z,16.38
2023-02-01T10:41:41.595Z,14.98
2023-02-01T10:46:44.891Z,15.13
2023-02-01T10:51:54.141Z,17.10
2023-02-01T10:56:57.263Z,18.17
2023-02-01T11:02:14.623Z,16.23
2023-02-01T11:07:25.295Z,17.08
2023-02-01T11:12:36.880Z,18.35
2023-02-01T11:17:47.542Z,18.13
2023-02-01T11:22:58.140Z,17.15
2023-02-01T11:28:01.216Z,16.20
2023-02-01T11:33:07.199Z,18.90
2023-02-01T11:38:34.323Z,17.27
2023-02-01T11:43:37.534Z,17.17
2023-02-01T11:48:40.715Z,17.80
2023-02-01T11:54:00.723Z,17.70
2023-02-01T11:59:12.904Z,17.08
2023-02-01T12:04:35.253Z,20.08
2023-02-01T12:09:53.167Z,17.27
2023-02-01T12:15:20.411Z,17.02
2023-02-01T12:20:26.480Z,15.35
2023-02-01T12:26:03.911Z,11.73
2023-02-01T12:31:30.056Z,17.42
2023-02-01T12:36:55.470Z,17.65
2023-02-01T12:42:19.846Z,18.48
2023-02-01T12:47:52.705Z,15.88
2023-02-01T12:53:13.932Z,17.20
2023-02-01T12:58:35.364Z,16.08
2023-02-01T13:03:44.299Z,17.63
2023-02-01T13:08:54.084Z,16.52
2023-02-01T13:14:20.095Z,17.60
2023-02-01T13:19:27.843Z,18.17
2023-02-01T13:24:38.483Z,16.63
2023-02-01T13:29:59.480Z,17.08
2023-02-01T13:35:55.847Z,16.58
2023-02-01T13:41:29.235Z,18.83
2023-02-01T13:46:43.137Z,18.95
2023-02-01T13:51:49.915Z,16.63
2023-02-01T13:56:54.209Z,17.73
2023-02-01T14:02:17.186Z,18.65
2023-02-01T14:07:23.032Z,18.27
2023-02-01T14:12:48.355Z,18.15
2023-02-01T14:17:51.884Z,18.52
2023-02-01T14:23:03.671Z,18.90
2023-02-01T14:28:27.048Z,14.52
2023-02-01T14:33:30.397Z,16.45
2023-02-01T14:38:34.501Z,16.02
2023-02-01T14:44:12.743Z,13.38
2023-02-01T14:49:16.833Z,14.02
2023-02-01T14:54:20.550Z,12.30
2023-02-01T14:59:26.769Z,12.88
2023-02-01T15:04:41.898Z,10.20
2023-02-01T15:09:48.926Z,12.45
2023-02-01T15:20:19.411Z,10.50
2023-02-01T15:25:33.103Z,11.30
2023-02-01T15:30:37.436Z,11.93
2023-02-01T15:35:45.975Z,11.38
2023-02-01T15:41:07.214Z,10.85
2023-02-01T15:46:14.045Z,10.60
2023-02-01T15:51:22.782Z,10.18
2023-02-01T15:56:34.228Z,11.48
2023-02-01T16:01:43.011Z,11.48
2023-02-01T16:07:10.534Z,12.25
2023-02-01T16:12:39.461Z,12.85
2023-02-01T16:17:43.737Z,10.57
2023-02-01T16:22:46.794Z,11.00
2023-02-01T16:27:49.850Z,9.77
2023-02-01T16:32:58.908Z,12.07
2023-02-01T16:38:02.171Z,6.22
2023-02-01T16:43:20.650Z,10.80
2023-02-01T16:48:29.695Z,12.30
2023-02-01T16:53:48.360Z,10.82
2023-02-01T16:58:56.406Z,10.73
2023-02-01T17:03:59.437Z,11.23
2023-02-01T17:09:04.334Z,11.50
2023-02-01T17:14:22.729Z,11.57
2023-02-01T17:19:25.933Z,9.73
2023-02-01T17:24:47.643Z,10.85
2023-02-01T17:29:54.138Z,11.82
2023-02-01T17:35:01.048Z,12.27
2023-02-01T17:40:09.949Z,12.18
2023-02-01T17:45:22.512Z,12.82
2023-02-01T17:50:29.035Z,11.02
2023-02-01T17:55:37.097Z,12.63
2023-02-01T18:00:44.325Z,11.40
2023-02-01T18:05:51.319Z,11.70
2023-02-01T18:11:00.075Z,12.93
2023-02-01T18:16:04.854Z,11.70
2023-02-01T18:21:11.255Z,13.48
2023-02-01T18:26:21.831Z,12.77
2023-02-01T18:31:30.728Z,9.55
2023-02-01T18:36:36.327Z,13.10
2023-02-01T18:41:42.666Z,11.95
2023-02-01T18:46:45.756Z,11.45
2023-02-01T18:51:51.949Z,12.43
2023-02-01T18:56:54.971Z,11.63
2023-02-01T19:02:00.672Z,11.30
2023-02-01T19:07:03.677Z,11.90
2023-02-01T19:12:07.011Z,11.88
2023-02-01T19:17:10.711Z,11.63
2023-02-01T19:22:13.849Z,11.15
2023-02-01T19:27:17.266Z,13.98
2023-02-01T19:32:20.349Z,11.52
2023-02-01T19:37:23.328Z,13.18
2023-02-01T19:42:27.009Z,12.13
2023-02-01T19:47:30.129Z,11.95
2023-02-01T19:52:36.420Z,13.32
2023-02-01T19:57:39.958Z,11.52
2023-02-01T20:02:42.338Z,11.55
2023-02-01T20:07:45.770Z,11.85
2023-02-01T20:12:49.830Z,11.27
2023-02-01T20:17:52.963Z,12.27
2023-02-01T20:22:56.281Z,11.43
2023-02-01T20:28:00.289Z,11.80
2023-02-01T20:33:06.073Z,11.27
2023-02-01T20:38:09.249Z,9.82
2023-02-01T20:43:12.580Z,10.10
2023-02-01T20:48:16.040Z,10.43
2023-02-01T20:53:26.511Z,10.75
2023-02-01T20:58:31.208Z,10.10
2023-02-01T21:03:35.509Z,11.43
2023-02-01T21:08:38.626Z,10.48
2023-02-01T21:13:50.849Z,11.00
2023-02-01T21:18:54.500Z,10.27
2023-02-01T21:23:58.544Z,10.52
2023-02-01T21:29:01.533Z,9.90
2023-02-01T21:34:05.144Z,10.68
2023-02-01T21:39:11.141Z,9.32
2023-02-01T21:44:15.003Z,11.13
2023-02-01T21:49:18.263Z,11.65
2023-02-01T21:54:21.817Z,10.65
2023-02-01T21:59:24.883Z,10.52
2023-02-01T22:04:27.969Z,10.27
2023-02-01T22:09:30.966Z,10.18
2023-02-01T22:14:34.125Z,10.15
2023-02-01T22:19:37.195Z,11.38
2023-02-01T22:24:40.230Z,10.85
2023-02-01T22:29:44.072Z,10.60
2023-02-01T22:34:47.245Z,10.75
2023-02-01T22:39:50.255Z,9.75
2023-02-01T22:44:53.245Z,11.25
2023-02-01T22:49:56.356Z,9.23
2023-02-01T22:54:59.430Z,10.05
2023-02-01T23:00:02.687Z,8.85
2023-02-01T23:05:07.813Z,9.55
2023-02-01T23:10:11.521Z,9.43
2023-02-01T23:15:16.804Z,9.95
2023-02-01T23:20:20.854Z,9.93
2023-02-01T23:25:24.091Z,11.07
2023-02-01T23:30:27.350Z,10.80
2023-02-01T23:35:30.315Z,8.82
2023-02-01T23:40:33.400Z,9.68
2023-02-01T23:45:36.481Z,9.30
2023-02-01T23:50:39.466Z,8.95
2023-02-01T23:55:42.457Z,9.40
